Time;durP1;ratioP1;P1;durP2;ratioP2;P2;SDS_P1;SDS_P2;PMS_P1;PMS_P2;Temp;Humidity;BMP_temperature;BMP_pressure;BME280_temperature;BME280_humidity;BME280_pressure;Samples;Min_cycle;Max_cycle;Signal;HPM_P1;HPM_P2
2021/12/04 00:01:12;;;;;;;3.03;1.20;;;5.70;43.60;;;;;;5016751;28;20290;-78
2021/12/04 00:03:39;;;;;;;0.80;0.80;;;5.70;44.40;;;;;;5020343;28;20234;-76
2021/12/04 00:06:38;;;;;;;1.40;0.90;;;5.70;46.00;;;;;;5035710;28;20210;-75
2021/12/04 00:09:09;;;;;;;1.52;1.02;;;5.60;46.40;;;;;;5039676;28;20230;-77
2021/12/04 00:11:40;;;;;;;3.05;0.85;;;5.60;46.40;;;;;;5031433;28;20231;-76
2021/12/04 00:14:07;;;;;;;1.08;1.00;;;5.60;47.00;;;;;;5029095;28;20204;-76
2021/12/04 00:16:34;;;;;;;1.77;0.70;;;5.60;47.40;;;;;;5038030;28;20271;-78
2021/12/04 00:19:01;;;;;;;1.23;0.90;;;5.60;47.70;;;;;;5047937;28;20557;-75
2021/12/04 00:21:28;;;;;;;2.70;0.90;;;5.60;47.90;;;;;;5040367;28;20505;-76
2021/12/04 00:23:55;;;;;;;1.38;1.00;;;5.60;48.90;;;;;;5041244;28;20215;-77
2021/12/04 00:26:24;;;;;;;1.35;1.08;;;5.60;48.30;;;;;;5034658;28;20546;-76
2021/12/04 00:28:51;;;;;;;1.92;1.02;;;5.70;48.20;;;;;;5030700;28;20230;-77
2021/12/04 00:31:18;;;;;;;2.60;0.98;;;5.60;48.00;;;;;;5035678;28;20262;-78
2021/12/04 00:33:46;;;;;;;0.93;0.82;;;5.60;48.40;;;;;;5035148;28;20212;-77
2021/12/04 00:36:25;;;;;;;0.82;0.82;;;5.60;47.90;;;;;;5033799;28;20214;-78
2021/12/04 00:49:59;;;;;;;1.13;1.00;;;5.50;46.30;;;;;;5046803;28;20778;-76
2021/12/04 00:52:25;;;;;;;1.48;1.20;;;5.50;46.30;;;;;;5049170;28;20217;-78
2021/12/04 00:54:52;;;;;;;2.40;1.23;;;5.50;47.00;;;;;;5049686;28;20258;-78
2021/12/04 00:57:21;;;;;;;2.45;1.10;;;5.50;48.50;;;;;;5030910;28;20262;-77
2021/12/04 00:59:48;;;;;;;1.38;1.20;;;5.50;50.00;;;;;;5033891;28;20256;-76
2021/12/04 01:02:15;;;;;;;3.55;1.13;;;5.50;51.50;;;;;;5047734;28;20215;-75
2021/12/04 01:04:41;;;;;;;1.05;0.95;;;5.50;54.00;;;;;;5038121;28;20298;-76
2021/12/04 01:07:08;;;;;;;1.67;0.90;;;5.50;55.80;;;;;;5037405;28;20203;-77
2021/12/04 01:09:36;;;;;;;0.70;0.70;;;5.40;58.00;;;;;;5038835;28;20655;-80
2021/12/04 01:12:07;;;;;;;0.88;0.88;;;5.40;60.70;;;;;;5038542;28;20203;-78
2021/12/04 01:14:36;;;;;;;1.17;1.05;;;5.30;64.60;;;;;;5038227;28;20659;-77
2021/12/04 01:17:03;;;;;;;1.17;0.80;;;5.30;66.60;;;;;;5038609;28;20207;-79
2021/12/04 01:19:30;;;;;;;2.65;1.08;;;5.20;69.70;;;;;;5044943;28;20235;-76
2021/12/04 01:21:58;;;;;;;0.70;0.60;;;5.10;73.10;;;;;;5025467;28;20211;-75
2021/12/04 01:24:26;;;;;;;1.48;1.10;;;5.10;74.30;;;;;;5024698;28;20299;-78
2021/12/04 01:26:54;;;;;;;0.98;0.75;;;5.10;76.90;;;;;;5023383;28;20231;-77
2021/12/04 01:29:21;;;;;;;1.15;0.98;;;5.00;79.10;;;;;;5021411;28;20220;-78
2021/12/04 01:31:50;;;;;;;0.85;0.80;;;5.10;81.50;;;;;;5022697;28;20211;-78
2021/12/04 01:34:17;;;;;;;0.80;0.80;;;5.00;83.10;;;;;;5022663;28;20270;-78
2021/12/04 01:36:44;;;;;;;1.25;1.00;;;5.00;85.30;;;;;;5021645;28;20226;-78
2021/12/04 01:39:11;;;;;;;2.55;1.35;;;5.00;85.60;;;;;;5022289;28;20208;-78
2021/12/04 01:41:39;;;;;;;0.75;0.75;;;5.00;88.00;;;;;;5025173;28;20211;-77
2021/12/04 01:44:07;;;;;;;1.50;0.73;;;5.00;89.60;;;;;;5021464;28;20275;-78
2021/12/04 01:46:35;;;;;;;0.60;0.60;;;4.90;90.50;;;;;;5031979;28;20207;-77
2021/12/04 01:49:03;;;;;;;0.80;0.80;;;4.90;91.50;;;;;;5043852;28;20223;-78
2021/12/04 01:51:30;;;;;;;1.65;0.80;;;4.90;91.60;;;;;;5051475;28;20279;-77
2021/12/04 01:53:57;;;;;;;0.82;0.82;;;4.90;92.40;;;;;;5052401;28;20203;-79
2021/12/04 01:56:29;;;;;;;1.92;0.90;;;5.00;92.50;;;;;;5038621;28;20243;-76
2021/12/04 01:58:56;;;;;;;2.30;0.95;;;4.90;92.90;;;;;;5029053;28;20224;-77
2021/12/04 02:01:23;;;;;;;1.40;1.20;;;4.80;93.30;;;;;;5043373;28;20235;-77
2021/12/04 02:03:50;;;;;;;3.42;1.70;;;4.80;93.30;;;;;;5052063;28;20204;-76
2021/12/04 02:06:19;;;;;;;2.42;1.67;;;4.70;93.00;;;;;;5029682;28;20243;-75
2021/12/04 02:08:46;;;;;;;2.35;1.73;;;4.70;92.60;;;;;;5023197;28;20231;-76
2021/12/04 02:11:18;;;;;;;7.18;2.30;;;4.70;91.50;;;;;;5033211;28;20290;-81
2021/12/04 02:13:45;;;;;;;2.72;2.50;;;4.30;90.10;;;;;;5042712;28;20215;-78
2021/12/04 02:16:16;;;;;;;4.35;2.85;;;4.30;90.40;;;;;;5039894;28;20207;-78
2021/12/04 02:18:43;;;;;;;4.07;2.55;;;4.30;90.00;;;;;;5044770;28;20203;-79
2021/12/04 02:21:12;;;;;;;3.60;3.30;;;4.30;90.30;;;;;;5029952;28;20718;-81
2021/12/04 02:23:39;;;;;;;4.60;4.10;;;4.00;91.80;;;;;;5021372;28;20298;-78
2021/12/04 02:26:06;;;;;;;4.85;4.07;;;3.80;92.60;;;;;;5036855;28;20203;-77
2021/12/04 02:28:33;;;;;;;4.80;3.80;;;3.80;93.80;;;;;;5043934;28;20286;-78
2021/12/04 02:31:00;;;;;;;6.30;3.78;;;3.70;94.10;;;;;;5041823;28;20258;-77
2021/12/04 02:33:27;;;;;;;6.20;4.32;;;3.50;93.60;;;;;;5045930;28;20302;-79
2021/12/04 02:35:56;;;;;;;4.80;4.20;;;3.50;94.60;;;;;;5048027;28;20203;-78
2021/12/04 02:38:26;;;;;;;4.25;3.70;;;3.40;95.00;;;;;;5050942;28;20229;-78
2021/12/04 02:40:55;;;;;;;7.65;4.43;;;3.50;95.70;;;;;;5026731;28;20227;-79
2021/12/04 02:43:22;;;;;;;6.90;5.28;;;3.50;95.90;;;;;;5017088;28;20203;-76
2021/12/04 02:45:49;;;;;;;6.53;4.75;;;3.40;96.10;;;;;;5017438;28;20301;-77
2021/12/04 02:48:17;;;;;;;6.22;4.78;;;3.20;96.20;;;;;;5017046;28;20227;-78
2021/12/04 02:50:45;;;;;;;5.95;5.00;;;3.10;97.50;;;;;;5017490;28;20235;-78
2021/12/04 02:53:12;;;;;;;5.28;4.35;;;3.10;98.30;;;;;;5020020;28;20237;-77
2021/12/04 02:55:41;;;;;;;7.55;4.75;;;3.10;99.40;;;;;;5038054;28;20434;-76
2021/12/04 02:58:08;;;;;;;9.07;5.05;;;3.10;99.60;;;;;;5052539;28;20194;-78
2021/12/04 03:00:35;;;;;;;7.20;5.10;;;3.10;99.90;;;;;;5055455;28;20264;-81
2021/12/04 03:03:02;;;;;;;5.07;4.38;;;3.10;99.90;;;;;;5047984;28;20261;-80
2021/12/04 03:05:30;;;;;;;6.72;4.65;;;3.10;99.90;;;;;;5036763;28;20207;-78
2021/12/04 03:07:59;;;;;;;8.30;4.93;;;3.00;99.90;;;;;;5036844;28;20274;-80
2021/12/04 03:10:27;;;;;;;6.40;4.80;;;3.00;99.90;;;;;;5036973;28;20226;-80
2021/12/04 03:12:55;;;;;;;5.20;4.50;;;3.10;99.90;;;;;;5032371;28;20213;-79
2021/12/04 03:15:23;;;;;;;4.97;4.50;;;3.00;99.90;;;;;;5037753;28;20237;-79
2021/12/04 03:17:53;;;;;;;5.13;4.03;;;3.10;99.90;;;;;;5048287;28;20209;-78
2021/12/04 03:20:20;;;;;;;8.15;4.03;;;3.10;99.90;;;;;;5045548;28;20222;-78
2021/12/04 03:22:48;;;;;;;6.38;3.45;;;3.00;99.90;;;;;;5034948;28;20308;-79
2021/12/04 03:25:18;;;;;;;6.15;3.38;;;3.10;99.90;;;;;;5024107;28;20228;-79
2021/12/04 03:27:48;;;;;;;3.95;3.45;;;3.00;99.90;;;;;;5025667;28;20218;-79
2021/12/04 03:30:26;;;;;;;4.70;2.90;;;3.10;99.90;;;;;;5025199;28;20590;-79
2021/12/04 03:35:15;;;;;;;5.82;3.47;;;3.10;99.90;;;;;;5032777;28;20681;-78
2021/12/04 03:41:13;;;;;;;4.35;3.42;;;3.00;99.90;;;;;;5013794;28;20281;-79
2021/12/04 03:43:40;;;;;;;5.65;3.95;;;3.00;99.90;;;;;;5013756;28;20642;-80
2021/12/04 03:46:13;;;;;;;5.32;3.42;;;3.00;99.90;;;;;;5013549;28;20695;-77
2021/12/04 03:48:50;;;;;;;4.45;3.92;;;3.00;99.90;;;;;;5015685;28;20223;-77
2021/12/04 03:51:18;;;;;;;4.57;3.70;;;3.00;99.90;;;;;;5017719;28;20267;-77
2021/12/04 03:53:45;;;;;;;5.20;3.95;;;3.10;99.90;;;;;;5017972;28;20742;-78
2021/12/04 03:56:14;;;;;;;5.20;3.47;;;3.10;99.90;;;;;;5017895;28;20217;-79
2021/12/04 03:58:41;;;;;;;5.38;3.92;;;3.10;99.90;;;;;;5030770;28;20206;-78
2021/12/04 04:01:11;;;;;;;5.50;3.92;;;3.00;99.90;;;;;;5038154;28;20349;-77
2021/12/04 04:03:38;;;;;;;5.35;3.83;;;3.00;99.90;;;;;;5029177;28;20297;-78
2021/12/04 04:06:05;;;;;;;6.05;4.13;;;3.00;99.90;;;;;;5027682;28;20274;-76
2021/12/04 04:08:32;;;;;;;4.20;3.78;;;3.00;99.90;;;;;;5038108;28;20217;-77
2021/12/04 04:10:59;;;;;;;5.05;4.07;;;3.00;99.90;;;;;;5042131;28;20749;-77
2021/12/04 04:13:26;;;;;;;6.07;4.07;;;3.10;99.90;;;;;;5044646;28;20205;-80
2021/12/04 04:15:53;;;;;;;7.60;4.53;;;3.10;99.90;;;;;;5045514;28;20218;-77
2021/12/04 04:18:22;;;;;;;5.80;4.25;;;3.10;99.90;;;;;;5028607;28;20215;-78
2021/12/04 04:20:49;;;;;;;6.80;4.55;;;3.10;99.90;;;;;;5024706;28;20654;-78
2021/12/04 04:23:16;;;;;;;5.50;4.85;;;3.10;99.90;;;;;;5043829;28;20210;-80
2021/12/04 04:25:43;;;;;;;6.90;5.07;;;3.10;99.90;;;;;;5050986;28;20245;-76
2021/12/04 04:28:10;;;;;;;7.68;5.80;;;3.10;99.90;;;;;;5048983;28;20274;-79
2021/12/04 04:30:38;;;;;;;9.60;5.63;;;3.00;99.90;;;;;;5049754;28;20261;-77
2021/12/04 04:33:06;;;;;;;8.10;5.70;;;3.10;99.90;;;;;;5040523;28;20675;-77
2021/12/04 04:35:35;;;;;;;7.82;5.40;;;3.10;99.90;;;;;;5028836;28;20270;-76
2021/12/04 04:38:17;;;;;;;10.95;5.97;;;3.20;99.90;;;;;;5021111;28;20208;-77
2021/12/04 04:57:40;;;;;;;14.00;7.53;;;3.10;99.90;;;;;;5020878;28;20256;-79
2021/12/04 05:00:28;;;;;;;11.07;7.65;;;3.20;99.90;;;;;;5032977;23;20231;-77
2021/12/04 05:11:19;;;;;;;10.85;7.57;;;3.30;99.90;;;;;;4949944;28;20227;-76
2021/12/04 05:13:47;;;;;;;9.98;7.15;;;3.30;99.90;;;;;;4992922;28;20271;-77
2021/12/04 05:16:15;;;;;;;11.40;7.43;;;3.30;99.90;;;;;;5013036;28;20214;-78
2021/12/04 05:18:52;;;;;;;11.45;7.47;;;3.30;99.90;;;;;;5004316;28;20224;-74
2021/12/04 05:21:19;;;;;;;10.38;7.53;;;3.30;99.90;;;;;;5000092;28;20319;-75
2021/12/04 05:23:50;;;;;;;11.65;8.15;;;3.30;99.90;;;;;;5000100;28;20215;-75
2021/12/04 05:26:20;;;;;;;14.30;8.23;;;3.30;99.90;;;;;;5007228;28;20464;-78
2021/12/04 05:28:48;;;;;;;11.93;7.70;;;3.20;99.90;;;;;;5006503;28;20208;-77
2021/12/04 05:31:15;;;;;;;12.00;8.00;;;3.30;99.90;;;;;;4997907;28;20232;-76
2021/12/04 05:33:43;;;;;;;13.38;8.25;;;3.30;99.90;;;;;;5000572;28;20205;-76
2021/12/04 05:36:11;;;;;;;11.45;7.20;;;3.40;99.90;;;;;;4999358;28;20219;-76
2021/12/04 05:38:39;;;;;;;10.95;7.82;;;3.40;99.90;;;;;;4998167;28;20208;-75
2021/12/04 05:41:08;;;;;;;11.15;7.57;;;3.40;99.90;;;;;;4998201;28;20240;-75
2021/12/04 05:43:36;;;;;;;9.93;7.30;;;3.40;99.90;;;;;;4999029;28;20276;-76
2021/12/04 05:46:11;;;;;;;14.43;8.95;;;3.40;99.90;;;;;;4999459;28;20215;-76
2021/12/04 05:48:44;;;;;;;11.00;7.65;;;3.40;99.90;;;;;;4999158;28;20216;-76
2021/12/04 05:51:26;;;;;;;13.77;7.10;;;3.40;99.90;;;;;;4999215;28;20243;-76
2021/12/04 05:56:36;;;;;;;12.93;7.95;;;3.40;99.90;;;;;;5012156;28;20228;-76
2021/12/04 05:59:04;;;;;;;14.43;8.45;;;3.40;99.90;;;;;;5014570;28;20307;-76
2021/12/04 06:01:31;;;;;;;11.80;7.97;;;3.30;99.90;;;;;;5013467;28;20328;-76
2021/12/04 06:03:58;;;;;;;12.07;7.88;;;3.30;99.90;;;;;;5001444;28;20216;-75
2021/12/04 06:06:26;;;;;;;15.63;8.43;;;3.40;99.90;;;;;;4997338;28;20214;-75
2021/12/04 06:08:53;;;;;;;14.70;8.45;;;3.40;99.90;;;;;;4995965;28;20291;-75
2021/12/04 06:11:20;;;;;;;13.30;8.13;;;3.40;99.90;;;;;;4995396;28;20231;-74
2021/12/04 06:13:49;;;;;;;13.88;8.30;;;3.40;99.90;;;;;;4998333;28;20204;-75
2021/12/04 06:16:17;;;;;;;16.50;8.48;;;3.50;99.90;;;;;;4994889;28;20200;-75
2021/12/04 06:18:46;;;;;;;15.77;9.05;;;3.50;99.90;;;;;;4994645;28;20299;-77
2021/12/04 06:23:57;;;;;;;13.65;8.80;;;3.40;99.90;;;;;;4994259;28;20227;-77
2021/12/04 06:26:24;;;;;;;13.15;9.27;;;3.50;99.90;;;;;;4994381;28;20212;-76
2021/12/04 06:28:53;;;;;;;16.85;8.80;;;3.50;99.90;;;;;;4994115;28;20213;-76
2021/12/04 06:31:20;;;;;;;14.80;8.93;;;3.60;99.90;;;;;;4993594;28;20497;-77
2021/12/04 06:33:47;;;;;;;14.20;9.43;;;3.60;99.90;;;;;;4994007;28;20209;-77
2021/12/04 06:36:14;;;;;;;16.80;9.18;;;3.50;99.90;;;;;;4993613;28;20669;-77
2021/12/04 06:38:41;;;;;;;13.75;8.85;;;3.50;99.90;;;;;;4993317;28;20222;-76
2021/12/04 06:41:08;;;;;;;16.65;9.45;;;3.50;99.90;;;;;;4992868;28;20233;-75
2021/12/04 06:43:37;;;;;;;20.20;9.63;;;3.50;99.90;;;;;;4993728;28;20239;-75
2021/12/04 06:46:08;;;;;;;12.93;8.57;;;3.50;99.90;;;;;;4993678;28;20736;-75
2021/12/04 06:48:42;;;;;;;15.40;9.25;;;3.60;99.90;;;;;;4997052;28;20210;-77
2021/12/04 06:51:18;;;;;;;17.15;10.93;;;3.60;99.90;;;;;;4995231;28;20439;-79
2021/12/04 06:53:48;;;;;;;18.02;8.98;;;3.70;99.90;;;;;;4999878;28;20230;-75
2021/12/04 06:56:16;;;;;;;15.05;8.95;;;3.70;99.90;;;;;;5001610;28;20196;-76
2021/12/04 06:58:43;;;;;;;19.08;9.70;;;3.70;99.90;;;;;;4997414;28;20219;-76
2021/12/04 07:01:12;;;;;;;15.93;9.63;;;3.70;99.90;;;;;;4998221;28;20290;-76
2021/12/04 07:03:40;;;;;;;16.75;10.15;;;3.80;99.90;;;;;;4995750;28;20276;-77
2021/12/04 07:06:08;;;;;;;17.23;9.88;;;3.70;99.90;;;;;;4995821;28;20231;-77
2021/12/04 07:08:35;;;;;;;16.90;10.30;;;3.90;99.90;;;;;;4995965;28;20267;-76
2021/12/04 07:11:04;;;;;;;18.15;10.05;;;3.90;99.90;;;;;;4994725;28;20398;-77
2021/12/04 07:13:32;;;;;;;14.90;9.27;;;3.80;99.90;;;;;;4996192;28;20217;-77
2021/12/04 07:16:04;;;;;;;12.43;8.32;;;3.80;99.90;;;;;;4995347;28;20505;-77
2021/12/04 07:18:32;;;;;;;15.95;9.13;;;3.90;99.90;;;;;;5001143;28;20224;-75
2021/12/04 07:21:00;;;;;;;15.57;9.63;;;3.90;99.90;;;;;;4997626;28;20660;-75
2021/12/04 07:23:27;;;;;;;18.83;10.80;;;3.80;99.90;;;;;;4998772;28;20267;-76
2021/12/04 07:25:55;;;;;;;15.98;10.60;;;3.80;99.90;;;;;;4999057;28;20635;-76
2021/12/04 07:28:22;;;;;;;17.52;9.88;;;3.80;99.90;;;;;;5001057;28;20295;-76
2021/12/04 07:30:49;;;;;;;18.38;11.07;;;3.90;99.90;;;;;;5007995;28;20236;-76
2021/12/04 07:33:16;;;;;;;17.35;10.05;;;3.90;99.90;;;;;;5002950;28;20224;-78
2021/12/04 07:35:45;;;;;;;14.85;9.68;;;3.90;99.90;;;;;;5003903;28;20207;-77
2021/12/04 07:38:13;;;;;;;16.05;10.00;;;3.90;99.90;;;;;;5001025;28;20272;-76
2021/12/04 07:40:41;;;;;;;19.77;11.00;;;4.00;99.90;;;;;;4996961;28;20239;-74
2021/12/04 07:43:08;;;;;;;14.63;9.68;;;4.00;99.90;;;;;;4999037;28;20212;-77
2021/12/04 07:45:35;;;;;;;16.10;9.00;;;4.10;99.90;;;;;;5003409;28;20216;-77
2021/12/04 07:48:02;;;;;;;19.05;10.73;;;4.10;99.90;;;;;;5005586;28;20216;-76
2021/12/04 07:50:29;;;;;;;18.95;10.77;;;4.10;99.90;;;;;;5003343;28;20228;-77
2021/12/04 07:52:58;;;;;;;17.17;10.90;;;4.00;99.90;;;;;;5004155;28;20282;-75
2021/12/04 07:55:26;;;;;;;18.10;10.07;;;4.00;99.90;;;;;;5002883;28;20707;-77
2021/12/04 07:57:53;;;;;;;15.93;10.05;;;4.10;99.90;;;;;;4998941;28;20222;-75
2021/12/04 08:00:23;;;;;;;17.58;9.60;;;4.10;99.90;;;;;;4996956;28;20264;-75
2021/12/04 08:02:50;;;;;;;17.30;10.57;;;4.20;99.90;;;;;;4998247;28;20240;-75
2021/12/04 08:05:18;;;;;;;14.05;9.93;;;4.20;99.90;;;;;;4997835;28;20236;-75
2021/12/04 08:07:45;;;;;;;17.40;10.32;;;4.10;99.90;;;;;;5000212;28;20299;-76
2021/12/04 08:10:17;;;;;;;18.42;11.00;;;4.20;99.90;;;;;;4997195;28;20224;-74
2021/12/04 08:12:44;;;;;;;20.08;10.35;;;4.30;99.90;;;;;;4997660;28;20660;-75
2021/12/04 08:15:12;;;;;;;16.85;11.25;;;4.30;99.90;;;;;;4996619;28;20231;-75
2021/12/04 08:17:40;;;;;;;18.85;10.75;;;4.30;99.90;;;;;;4996634;28;20651;-75
2021/12/04 08:20:08;;;;;;;16.88;11.10;;;4.30;99.90;;;;;;4996563;28;20282;-76
2021/12/04 08:22:35;;;;;;;19.00;11.10;;;4.30;99.90;;;;;;4997828;28;20236;-77
2021/12/04 08:25:02;;;;;;;18.58;11.50;;;4.20;99.90;;;;;;4996605;28;20653;-75
2021/12/04 08:27:30;;;;;;;17.95;10.38;;;4.30;99.90;;;;;;4998262;28;20212;-77
2021/12/04 08:29:58;;;;;;;18.35;10.60;;;4.40;99.90;;;;;;4996823;28;20237;-76
2021/12/04 08:32:25;;;;;;;16.17;9.88;;;4.60;99.90;;;;;;4996711;28;20242;-76
2021/12/04 08:34:52;;;;;;;16.95;10.77;;;4.70;99.90;;;;;;4996805;28;20236;-75
2021/12/04 08:37:20;;;;;;;17.52;11.52;;;4.60;99.90;;;;;;4996602;28;20299;-76
2021/12/04 08:39:48;;;;;;;15.77;9.73;;;4.50;99.90;;;;;;4996516;28;20243;-77
2021/12/04 08:42:15;;;;;;;16.45;11.15;;;4.50;99.90;;;;;;4998307;28;20633;-74
2021/12/04 08:44:44;;;;;;;18.65;11.25;;;4.50;99.90;;;;;;4998456;28;20212;-75
2021/12/04 08:47:11;;;;;;;15.85;10.60;;;4.50;99.90;;;;;;4996348;28;20675;-74
2021/12/04 08:49:38;;;;;;;17.30;11.32;;;4.60;99.90;;;;;;4998023;28;20291;-75
2021/12/04 08:52:07;;;;;;;18.33;10.32;;;4.60;99.90;;;;;;5000078;28;20591;-74
2021/12/04 08:54:35;;;;;;;18.30;10.75;;;4.70;99.90;;;;;;5001894;28;20232;-73
2021/12/04 08:57:03;;;;;;;15.98;10.40;;;4.70;99.90;;;;;;5004470;28;20205;-75
2021/12/04 08:59:32;;;;;;;16.98;10.80;;;4.60;99.90;;;;;;4999039;28;20599;-75
2021/12/04 09:02:01;;;;;;;16.85;9.60;;;4.70;99.90;;;;;;5000592;28;20243;-77
2021/12/04 09:04:31;;;;;;;18.83;11.07;;;4.80;99.90;;;;;;5006256;28;20648;-76
2021/12/04 09:07:00;;;;;;;14.13;10.18;;;4.80;99.90;;;;;;5010378;28;20662;-76
2021/12/04 09:09:28;;;;;;;20.02;10.40;;;4.90;99.90;;;;;;5001074;28;20220;-76
2021/12/04 09:12:00;;;;;;;13.50;10.00;;;4.80;99.90;;;;;;4999388;28;20232;-75
2021/12/04 09:14:30;;;;;;;16.58;10.32;;;4.90;99.90;;;;;;5011556;28;20219;-74
2021/12/04 09:17:02;;;;;;;16.55;10.38;;;4.90;99.90;;;;;;5016776;28;20232;-77
2021/12/04 09:19:31;;;;;;;18.08;11.25;;;4.90;99.90;;;;;;5018877;28;20184;-77
2021/12/04 09:22:03;;;;;;;14.85;8.93;;;4.90;99.90;;;;;;5000606;28;20220;-75
2021/12/04 09:24:37;;;;;;;14.73;9.80;;;5.10;99.90;;;;;;5013280;28;20656;-75
2021/12/04 09:27:17;;;;;;;12.73;9.10;;;5.10;99.90;;;;;;5022886;28;20195;-76
2021/12/04 09:30:00;;;;;;;17.10;9.43;;;5.00;99.90;;;;;;5015674;28;20209;-77
2021/12/04 09:32:50;;;;;;;15.25;9.57;;;5.20;99.90;;;;;;5003059;28;20220;-76
2021/12/04 10:00:18;;;;;;;12.77;9.30;;;5.70;99.90;;;;;;5016306;28;20263;-76
2021/12/04 10:05:52;;;;;;;13.75;9.63;;;5.60;99.90;;;;;;5014204;28;20205;-78
2021/12/04 10:19:59;;;;;;;15.15;10.70;;;5.70;99.90;;;;;;4949869;28;20268;-77
2021/12/04 10:22:35;;;;;;;13.98;9.55;;;5.70;99.90;;;;;;5016383;28;20200;-78
2021/12/04 10:33:45;;;;;;;12.98;9.98;;;6.30;99.90;;;;;;4944869;29;20655;-76
2021/12/04 10:36:12;;;;;;;8.88;7.70;;;6.40;99.90;;;;;;4942392;29;20209;-76
2021/12/04 10:38:43;;;;;;;12.25;9.32;;;6.40;99.90;;;;;;4973172;28;20223;-76
2021/12/04 10:41:10;;;;;;;13.45;9.52;;;6.60;99.90;;;;;;5004864;28;20280;-75
2021/12/04 10:43:37;;;;;;;12.32;9.55;;;6.80;99.90;;;;;;5008195;28;20205;-74
2021/12/04 10:46:12;;;;;;;15.52;13.38;;;6.90;99.90;;;;;;5011091;28;20196;-75
2021/12/04 10:48:46;;;;;;;16.02;11.90;;;6.90;99.90;;;;;;5009755;28;20200;-74
2021/12/04 10:51:22;;;;;;;14.55;9.73;;;7.00;99.90;;;;;;5005893;28;20232;-77
2021/12/04 10:53:55;;;;;;;16.38;10.07;;;7.00;99.90;;;;;;5005538;28;20226;-76
2021/12/04 10:56:35;;;;;;;11.95;8.95;;;7.10;99.90;;;;;;5009548;28;20264;-74
2021/12/04 11:02:02;;;;;;;9.35;7.07;;;7.10;99.90;;;;;;5011294;28;20267;-76
2021/12/04 11:04:38;;;;;;;13.15;7.97;;;7.10;99.90;;;;;;5009805;28;20231;-76
2021/12/04 11:21:36;;;;;;;10.00;7.75;;;7.30;99.90;;;;;;5006563;28;20242;-78
2021/12/04 11:24:25;;;;;;;11.95;8.50;;;7.50;99.90;;;;;;4999642;28;20217;-78
2021/12/04 11:43:57;;;;;;;7.63;5.88;;;7.90;99.90;;;;;;4937064;29;20654;-75
2021/12/04 11:46:41;;;;;;;9.27;7.35;;;8.00;99.90;;;;;;4938807;29;20611;-75
2021/12/04 11:49:14;;;;;;;6.43;5.00;;;8.10;99.90;;;;;;4942237;29;20207;-75
2021/12/04 11:51:56;;;;;;;6.18;5.20;;;8.30;99.90;;;;;;4939537;29;20266;-74
2021/12/04 11:54:23;;;;;;;5.65;4.93;;;8.50;99.90;;;;;;4941059;29;20194;-76
2021/12/04 11:57:03;;;;;;;7.20;5.30;;;8.60;99.90;;;;;;4945638;29;20337;-75
2021/12/04 11:59:34;;;;;;;4.80;4.30;;;8.70;99.90;;;;;;4953790;29;20225;-76
2021/12/04 12:02:02;;;;;;;4.50;3.70;;;8.80;99.90;;;;;;4953906;28;20237;-75
2021/12/04 12:04:35;;;;;;;4.85;3.85;;;8.90;99.90;;;;;;4950158;29;20207;-77
2021/12/04 12:07:12;;;;;;;6.90;4.63;;;9.00;99.90;;;;;;4948501;29;20207;-77
2021/12/04 12:09:40;;;;;;;4.03;3.70;;;9.10;99.90;;;;;;4947924;29;20213;-79
2021/12/04 12:12:11;;;;;;;2.90;2.55;;;9.20;99.90;;;;;;4987729;28;20236;-76
2021/12/04 12:14:45;;;;;;;4.57;2.85;;;9.20;99.90;;;;;;5010892;28;20283;-76
2021/12/04 12:17:13;;;;;;;5.38;4.53;;;9.40;99.90;;;;;;5008439;28;20222;-76
2021/12/04 12:19:43;;;;;;;2.38;2.17;;;9.50;99.90;;;;;;5006897;28;20219;-76
2021/12/04 12:22:27;;;;;;;2.17;1.98;;;9.50;99.90;;;;;;5008350;28;20212;-76
2021/12/04 12:25:10;;;;;;;1.10;1.00;;;9.60;99.90;;;;;;5004950;28;20197;-78
2021/12/04 12:33:41;;;;;;;0.82;0.82;;;9.90;99.90;;;;;;5000301;28;20268;-76
2021/12/04 12:36:12;;;;;;;1.02;0.73;;;10.00;99.90;;;;;;5002727;28;20193;-76
2021/12/04 12:38:53;;;;;;;0.75;0.75;;;10.00;99.90;;;;;;5001858;28;20280;-75
2021/12/04 12:41:28;;;;;;;1.30;0.60;;;10.00;99.90;;;;;;5002331;28;20274;-76
2021/12/04 12:44:05;;;;;;;0.80;0.70;;;10.10;99.90;;;;;;5004010;28;20208;-78
2021/12/04 12:46:41;;;;;;;1.13;0.80;;;10.10;99.90;;;;;;5006222;28;20216;-77
2021/12/04 12:49:20;;;;;;;0.70;0.70;;;10.10;99.90;;;;;;4998065;28;20219;-75
2021/12/04 12:51:54;;;;;;;1.58;0.50;;;10.20;99.90;;;;;;4998255;28;20239;-76
2021/12/04 12:54:26;;;;;;;0.95;0.60;;;10.10;99.90;;;;;;4998447;28;20306;-76
2021/12/04 12:57:00;;;;;;;0.73;0.70;;;10.10;99.90;;;;;;4997530;28;20631;-76
2021/12/04 12:59:37;;;;;;;0.55;0.55;;;10.10;99.90;;;;;;4997721;28;20209;-76
2021/12/04 13:13:25;;;;;;;0.55;0.55;;;9.90;99.90;;;;;;4998457;28;20288;-75
2021/12/04 13:15:54;;;;;;;0.68;0.68;;;9.90;99.90;;;;;;4997976;28;20227;-76
2021/12/04 13:18:23;;;;;;;1.50;0.73;;;9.80;99.90;;;;;;5006029;28;20702;-76
2021/12/04 13:20:52;;;;;;;1.30;1.20;;;9.80;99.90;;;;;;5007357;28;20298;-76
2021/12/04 13:23:22;;;;;;;0.98;0.88;;;9.90;99.90;;;;;;4996288;28;20231;-76
2021/12/04 13:25:56;;;;;;;2.28;0.60;;;9.90;99.90;;;;;;4997766;28;20208;-76
2021/12/04 13:28:26;;;;;;;1.77;1.10;;;9.90;99.90;;;;;;4997007;28;20192;-77
2021/12/04 13:30:53;;;;;;;2.58;1.20;;;9.90;99.90;;;;;;4997231;28;20350;-77
2021/12/04 13:33:22;;;;;;;1.10;1.10;;;9.90;99.90;;;;;;5005094;28;20260;-77
2021/12/04 13:35:49;;;;;;;1.00;1.00;;;9.90;99.90;;;;;;5002004;28;20301;-76
2021/12/04 13:38:20;;;;;;;1.25;1.00;;;10.00;99.90;;;;;;4997048;28;20228;-77
2021/12/04 13:40:49;;;;;;;1.27;0.95;;;9.90;99.90;;;;;;4997449;28;20272;-77
2021/12/04 13:43:17;;;;;;;1.02;0.93;;;9.90;99.90;;;;;;4998845;28;20212;-80
2021/12/04 13:45:45;;;;;;;1.17;1.08;;;9.90;99.90;;;;;;5001442;28;20235;-76
2021/12/04 13:48:14;;;;;;;1.00;0.52;;;9.90;99.90;;;;;;5001423;28;20214;-79
2021/12/04 13:50:45;;;;;;;4.88;0.70;;;9.90;99.90;;;;;;5013585;28;20232;-79
2021/12/04 13:53:20;;;;;;;0.52;0.52;;;9.90;99.90;;;;;;5014594;28;20229;-78
2021/12/04 13:55:53;;;;;;;0.90;0.90;;;10.00;99.90;;;;;;5014792;28;20212;-76
2021/12/04 13:58:21;;;;;;;1.05;0.70;;;10.00;99.90;;;;;;5014504;28;20203;-77
2021/12/04 14:00:48;;;;;;;0.70;0.70;;;10.00;99.90;;;;;;4998618;28;20255;-77
2021/12/04 14:03:21;;;;;;;0.50;0.50;;;9.90;99.90;;;;;;4996302;28;20236;-76
2021/12/04 14:05:49;;;;;;;0.77;0.77;;;10.00;99.90;;;;;;4995200;28;20208;-77
2021/12/04 14:08:16;;;;;;;0.80;0.80;;;10.00;99.90;;;;;;4999858;28;20232;-77
2021/12/04 14:10:45;;;;;;;0.85;0.73;;;10.00;99.90;;;;;;4998025;28;20716;-77
2021/12/04 14:13:14;;;;;;;2.78;1.05;;;10.00;99.90;;;;;;4996631;28;20250;-76
2021/12/04 14:15:44;;;;;;;1.27;1.15;;;9.90;99.90;;;;;;4998057;28;20226;-77
2021/12/04 14:18:22;;;;;;;0.57;0.57;;;10.00;99.90;;;;;;5003455;28;20688;-78
2021/12/04 14:20:52;;;;;;;1.10;0.75;;;9.90;99.90;;;;;;5007838;28;20224;-76
2021/12/04 14:23:20;;;;;;;1.15;1.05;;;9.90;99.90;;;;;;5003038;28;20235;-76
2021/12/04 14:25:53;;;;;;;0.70;0.70;;;9.90;99.90;;;;;;4998543;28;20672;-76
2021/12/04 14:28:22;;;;;;;0.85;0.85;;;9.90;99.90;;;;;;4998122;28;20676;-77
2021/12/04 14:30:50;;;;;;;1.17;0.90;;;9.90;99.90;;;;;;5004807;28;20295;-77
2021/12/04 14:33:22;;;;;;;1.30;1.20;;;9.90;99.90;;;;;;5006576;28;20232;-77
2021/12/04 14:35:53;;;;;;;1.63;0.80;;;9.90;99.90;;;;;;5007966;28;20247;-76
2021/12/04 14:38:24;;;;;;;1.02;0.95;;;9.90;99.90;;;;;;5006281;28;20204;-77
2021/12/04 14:40:55;;;;;;;2.80;0.90;;;9.80;99.90;;;;;;4996556;28;20327;-75
2021/12/04 14:43:25;;;;;;;0.95;0.95;;;9.80;99.90;;;;;;4998636;28;20208;-77
2021/12/04 14:45:56;;;;;;;1.33;1.23;;;9.80;99.90;;;;;;4997089;28;20208;-75
2021/12/04 14:48:27;;;;;;;0.82;0.80;;;9.80;99.90;;;;;;4998740;28;20584;-76
2021/12/04 14:51:09;;;;;;;1.40;1.00;;;9.80;99.90;;;;;;4997169;28;20331;-77
2021/12/04 14:53:39;;;;;;;1.00;1.00;;;9.80;99.90;;;;;;4994541;28;20228;-76
2021/12/04 14:56:08;;;;;;;0.90;0.90;;;9.80;99.90;;;;;;4994644;28;20211;-77
2021/12/04 14:58:35;;;;;;;0.73;0.70;;;9.80;99.90;;;;;;4995166;28;20280;-75
2021/12/04 15:01:06;;;;;;;1.30;1.00;;;9.80;99.90;;;;;;4994280;28;20327;-76
2021/12/04 15:03:36;;;;;;;1.00;1.00;;;9.80;99.90;;;;;;4997397;28;20225;-76
2021/12/04 15:06:07;;;;;;;2.25;1.60;;;9.80;99.90;;;;;;5000184;28;20220;-77
2021/12/04 15:08:37;;;;;;;2.22;1.65;;;9.80;99.90;;;;;;4998746;28;20268;-77
2021/12/04 15:11:06;;;;;;;1.17;1.05;;;9.80;99.90;;;;;;4998258;28;20228;-76
2021/12/04 15:13:36;;;;;;;0.98;0.98;;;9.80;99.90;;;;;;4996808;28;20302;-75
2021/12/04 15:16:07;;;;;;;1.38;1.30;;;9.80;99.90;;;;;;4995574;28;20209;-75
2021/12/04 15:18:37;;;;;;;1.65;1.55;;;9.80;99.90;;;;;;4997515;28;20188;-77
2021/12/04 15:21:15;;;;;;;1.88;1.65;;;9.80;99.90;;;;;;5000255;28;20708;-78
2021/12/04 15:23:44;;;;;;;1.55;1.33;;;9.80;99.90;;;;;;4997773;28;20196;-76
2021/12/04 15:26:15;;;;;;;1.52;1.30;;;9.80;99.90;;;;;;4994120;28;20231;-76
2021/12/04 15:28:48;;;;;;;1.27;1.05;;;9.80;99.90;;;;;;4999187;28;20272;-75
2021/12/04 15:31:15;;;;;;;2.85;1.60;;;9.80;99.90;;;;;;4994758;28;20251;-76